sensor_id;sensor_type;location;lat;lon;timestamp;temperature;humidity
56729;DHT22;42612;52.232;7.560;2022-10-15T00:02:30;17.80;63.70
56729;DHT22;42612;52.232;7.560;2022-10-15T00:05:16;17.80;63.90
56729;DHT22;42612;52.232;7.560;2022-10-15T00:08:02;17.70;63.90
56729;DHT22;42612;52.232;7.560;2022-10-15T00:10:48;17.70;63.70
56729;DHT22;42612;52.232;7.560;2022-10-15T00:13:34;17.70;63.70
56729;DHT22;42612;52.232;7.560;2022-10-15T00:16:22;17.70;63.50
56729;DHT22;42612;52.232;7.560;2022-10-15T00:19:09;17.60;63.40
56729;DHT22;42612;52.232;7.560;2022-10-15T00:21:55;17.60;63.50
56729;DHT22;42612;52.232;7.560;2022-10-15T00:24:41;17.60;63.90
56729;DHT22;42612;52.232;7.560;2022-10-15T00:27:27;17.60;63.70
56729;DHT22;42612;52.232;7.560;2022-10-15T00:30:13;17.60;63.80
56729;DHT22;42612;52.232;7.560;2022-10-15T00:32:59;17.60;64.00
56729;DHT22;42612;52.232;7.560;2022-10-15T00:35:45;17.60;63.80
56729;DHT22;42612;52.232;7.560;2022-10-15T00:38:31;17.60;63.60
56729;DHT22;42612;52.232;7.560;2022-10-15T00:41:23;17.50;63.50
56729;DHT22;42612;52.232;7.560;2022-10-15T00:47:19;17.50;63.50
56729;DHT22;42612;52.232;7.560;2022-10-15T00:50:17;17.50;63.60
56729;DHT22;42612;52.232;7.560;2022-10-15T00:53:05;17.50;63.50
56729;DHT22;42612;52.232;7.560;2022-10-15T00:55:53;17.40;63.40
56729;DHT22;42612;52.232;7.560;2022-10-15T00:58:39;17.40;63.30
56729;DHT22;42612;52.232;7.560;2022-10-15T01:01:25;17.40;63.40
56729;DHT22;42612;52.232;7.560;2022-10-15T01:04:11;17.40;63.60
56729;DHT22;42612;52.232;7.560;2022-10-15T01:06:57;17.40;63.70
56729;DHT22;42612;52.232;7.560;2022-10-15T01:09:43;17.40;63.70
56729;DHT22;42612;52.232;7.560;2022-10-15T01:15:38;17.40;63.70
56729;DHT22;42612;52.232;7.560;2022-10-15T01:18:28;17.40;63.70
56729;DHT22;42612;52.232;7.560;2022-10-15T01:21:19;17.40;63.90
56729;DHT22;42612;52.232;7.560;2022-10-15T01:30:26;17.50;63.70
56729;DHT22;42612;52.232;7.560;2022-10-15T01:36:27;17.50;63.60
56729;DHT22;42612;52.232;7.560;2022-10-15T01:39:22;17.50;63.50
56729;DHT22;42612;52.232;7.560;2022-10-15T01:45:36;17.50;63.50
56729;DHT22;42612;52.232;7.560;2022-10-15T01:48:25;17.40;63.50
56729;DHT22;42612;52.232;7.560;2022-10-15T01:51:12;17.40;63.40
56729;DHT22;42612;52.232;7.560;2022-10-15T01:53:59;17.40;63.30
56729;DHT22;42612;52.232;7.560;2022-10-15T01:56:47;17.40;63.20
56729;DHT22;42612;52.232;7.560;2022-10-15T01:59:36;17.30;63.10
56729;DHT22;42612;52.232;7.560;2022-10-15T02:02:22;17.40;64.00
56729;DHT22;42612;52.232;7.560;2022-10-15T02:05:10;17.30;63.20
56729;DHT22;42612;52.232;7.560;2022-10-15T02:10:52;17.30;63.30
56729;DHT22;42612;52.232;7.560;2022-10-15T02:17:07;17.30;63.30
56729;DHT22;42612;52.232;7.560;2022-10-15T02:20:05;17.30;63.30
56729;DHT22;42612;52.232;7.560;2022-10-15T02:22:59;17.30;63.30
56729;DHT22;42612;52.232;7.560;2022-10-15T02:25:48;17.30;63.30
56729;DHT22;42612;52.232;7.560;2022-10-15T02:28:35;17.30;63.20
56729;DHT22;42612;52.232;7.560;2022-10-15T02:31:23;17.30;63.30
56729;DHT22;42612;52.232;7.560;2022-10-15T02:34:11;17.40;63.30
56729;DHT22;42612;52.232;7.560;2022-10-15T02:37:00;17.30;63.20
56729;DHT22;42612;52.232;7.560;2022-10-15T02:39:47;17.30;63.30
56729;DHT22;42612;52.232;7.560;2022-10-15T02:42:33;17.40;63.30
56729;DHT22;42612;52.232;7.560;2022-10-15T02:45:19;17.30;63.20
56729;DHT22;42612;52.232;7.560;2022-10-15T02:48:06;17.30;63.30
56729;DHT22;42612;52.232;7.560;2022-10-15T02:50:52;17.30;63.20
56729;DHT22;42612;52.232;7.560;2022-10-15T02:53:38;17.30;63.20
56729;DHT22;42612;52.232;7.560;2022-10-15T02:56:24;17.30;63.20
56729;DHT22;42612;52.232;7.560;2022-10-15T02:59:10;17.30;63.20
56729;DHT22;42612;52.232;7.560;2022-10-15T03:01:56;17.30;63.20
56729;DHT22;42612;52.232;7.560;2022-10-15T03:04:42;17.30;63.30
56729;DHT22;42612;52.232;7.560;2022-10-15T03:07:28;17.30;63.30
56729;DHT22;42612;52.232;7.560;2022-10-15T03:10:14;17.20;63.20
56729;DHT22;42612;52.232;7.560;2022-10-15T03:13:01;17.20;63.30
56729;DHT22;42612;52.232;7.560;2022-10-15T03:15:50;17.20;63.30
56729;DHT22;42612;52.232;7.560;2022-10-15T03:18:36;17.20;63.40
56729;DHT22;42612;52.232;7.560;2022-10-15T03:21:22;17.10;63.40
56729;DHT22;42612;52.232;7.560;2022-10-15T03:24:08;17.20;63.50
56729;DHT22;42612;52.232;7.560;2022-10-15T03:26:54;17.20;63.40
56729;DHT22;42612;52.232;7.560;2022-10-15T03:29:40;17.20;63.40
56729;DHT22;42612;52.232;7.560;2022-10-15T03:32:26;17.20;63.40
56729;DHT22;42612;52.232;7.560;2022-10-15T03:35:12;17.20;63.40
56729;DHT22;42612;52.232;7.560;2022-10-15T03:37:58;17.10;63.50
56729;DHT22;42612;52.232;7.560;2022-10-15T03:40:44;17.10;63.40
56729;DHT22;42612;52.232;7.560;2022-10-15T03:43:31;17.20;63.50
56729;DHT22;42612;52.232;7.560;2022-10-15T03:46:16;17.10;63.40
56729;DHT22;42612;52.232;7.560;2022-10-15T03:49:02;17.10;63.50
56729;DHT22;42612;52.232;7.560;2022-10-15T03:51:48;17.10;63.40
56729;DHT22;42612;52.232;7.560;2022-10-15T03:54:34;17.10;63.40
56729;DHT22;42612;52.232;7.560;2022-10-15T03:57:20;17.00;63.30
56729;DHT22;42612;52.232;7.560;2022-10-15T04:00:07;17.10;63.40
56729;DHT22;42612;52.232;7.560;2022-10-15T04:02:53;17.00;63.40
56729;DHT22;42612;52.232;7.560;2022-10-15T04:05:39;17.00;64.10
56729;DHT22;42612;52.232;7.560;2022-10-15T04:08:25;17.00;63.30
56729;DHT22;42612;52.232;7.560;2022-10-15T04:11:11;17.00;63.30
56729;DHT22;42612;52.232;7.560;2022-10-15T04:13:57;17.00;63.30
56729;DHT22;42612;52.232;7.560;2022-10-15T04:16:43;17.00;63.40
56729;DHT22;42612;52.232;7.560;2022-10-15T04:19:29;17.00;63.30
56729;DHT22;42612;52.232;7.560;2022-10-15T04:22:15;17.00;63.30
56729;DHT22;42612;52.232;7.560;2022-10-15T04:25:01;17.00;63.30
56729;DHT22;42612;52.232;7.560;2022-10-15T04:27:47;17.00;63.30
56729;DHT22;42612;52.232;7.560;2022-10-15T04:30:33;16.90;63.20
56729;DHT22;42612;52.232;7.560;2022-10-15T04:33:19;16.90;63.20
56729;DHT22;42612;52.232;7.560;2022-10-15T04:36:05;16.90;63.30
56729;DHT22;42612;52.232;7.560;2022-10-15T04:38:58;16.90;63.30
56729;DHT22;42612;52.232;7.560;2022-10-15T04:41:44;16.90;63.20
56729;DHT22;42612;52.232;7.560;2022-10-15T04:44:30;16.90;63.30
56729;DHT22;42612;52.232;7.560;2022-10-15T04:47:16;16.90;63.20
56729;DHT22;42612;52.232;7.560;2022-10-15T04:50:02;16.90;63.20
56729;DHT22;42612;52.232;7.560;2022-10-15T04:52:48;16.90;63.20
56729;DHT22;42612;52.232;7.560;2022-10-15T04:55:34;16.90;63.20
56729;DHT22;42612;52.232;7.560;2022-10-15T04:58:20;16.90;63.20
56729;DHT22;42612;52.232;7.560;2022-10-15T05:01:07;16.90;63.20
56729;DHT22;42612;52.232;7.560;2022-10-15T05:03:56;16.90;63.10
56729;DHT22;42612;52.232;7.560;2022-10-15T05:06:42;16.80;63.20
56729;DHT22;42612;52.232;7.560;2022-10-15T05:09:28;16.80;63.20
56729;DHT22;42612;52.232;7.560;2022-10-15T05:12:14;16.80;63.20
56729;DHT22;42612;52.232;7.560;2022-10-15T05:15:00;16.80;63.30
56729;DHT22;42612;52.232;7.560;2022-10-15T05:17:46;16.80;63.30
56729;DHT22;42612;52.232;7.560;2022-10-15T05:20:32;16.80;63.30
56729;DHT22;42612;52.232;7.560;2022-10-15T05:23:18;16.70;63.30
56729;DHT22;42612;52.232;7.560;2022-10-15T05:26:07;16.70;63.30
56729;DHT22;42612;52.232;7.560;2022-10-15T05:28:56;16.70;63.40
56729;DHT22;42612;52.232;7.560;2022-10-15T05:31:42;16.70;63.50
56729;DHT22;42612;52.232;7.560;2022-10-15T05:34:28;16.70;63.40
56729;DHT22;42612;52.232;7.560;2022-10-15T05:37:15;16.70;63.50
56729;DHT22;42612;52.232;7.560;2022-10-15T05:40:01;16.70;63.50
56729;DHT22;42612;52.232;7.560;2022-10-15T05:42:50;16.80;63.50
56729;DHT22;42612;52.232;7.560;2022-10-15T05:45:37;16.70;63.50
56729;DHT22;42612;52.232;7.560;2022-10-15T05:48:23;16.70;63.50
56729;DHT22;42612;52.232;7.560;2022-10-15T05:51:10;16.70;63.50
56729;DHT22;42612;52.232;7.560;2022-10-15T05:53:57;16.70;63.60
56729;DHT22;42612;52.232;7.560;2022-10-15T05:56:43;16.70;63.50
56729;DHT22;42612;52.232;7.560;2022-10-15T05:59:29;16.70;63.50
56729;DHT22;42612;52.232;7.560;2022-10-15T06:02:15;16.90;63.60
56729;DHT22;42612;52.232;7.560;2022-10-15T06:05:01;16.80;63.50
56729;DHT22;42612;52.232;7.560;2022-10-15T06:07:47;16.80;63.50
56729;DHT22;42612;52.232;7.560;2022-10-15T06:10:36;16.80;63.50
56729;DHT22;42612;52.232;7.560;2022-10-15T06:13:22;16.80;63.60
56729;DHT22;42612;52.232;7.560;2022-10-15T06:16:08;16.80;63.50
56729;DHT22;42612;52.232;7.560;2022-10-15T06:18:55;16.80;63.60
56729;DHT22;42612;52.232;7.560;2022-10-15T06:21:41;16.80;63.50
56729;DHT22;42612;52.232;7.560;2022-10-15T06:24:27;16.80;63.60
56729;DHT22;42612;52.232;7.560;2022-10-15T06:27:13;16.80;63.60
56729;DHT22;42612;52.232;7.560;2022-10-15T06:29:59;16.80;63.60
56729;DHT22;42612;52.232;7.560;2022-10-15T06:32:48;16.80;63.50
56729;DHT22;42612;52.232;7.560;2022-10-15T06:35:35;16.80;63.60
56729;DHT22;42612;52.232;7.560;2022-10-15T06:38:21;16.80;63.70
56729;DHT22;42612;52.232;7.560;2022-10-15T06:41:08;16.70;63.60
56729;DHT22;42612;52.232;7.560;2022-10-15T06:43:54;16.80;63.60
56729;DHT22;42612;52.232;7.560;2022-10-15T06:46:40;16.80;63.70
56729;DHT22;42612;52.232;7.560;2022-10-15T06:49:26;16.80;63.70
56729;DHT22;42612;52.232;7.560;2022-10-15T06:52:12;16.80;63.70
56729;DHT22;42612;52.232;7.560;2022-10-15T06:54:58;16.80;63.70
56729;DHT22;42612;52.232;7.560;2022-10-15T06:57:44;16.80;63.80
56729;DHT22;42612;52.232;7.560;2022-10-15T07:00:30;16.80;63.80
56729;DHT22;42612;52.232;7.560;2022-10-15T07:03:15;16.80;63.80
56729;DHT22;42612;52.232;7.560;2022-10-15T07:06:02;16.80;63.90
56729;DHT22;42612;52.232;7.560;2022-10-15T07:08:49;16.80;63.80
56729;DHT22;42612;52.232;7.560;2022-10-15T07:11:35;16.80;63.90
56729;DHT22;42612;52.232;7.560;2022-10-15T07:14:21;16.80;63.90
56729;DHT22;42612;52.232;7.560;2022-10-15T07:17:07;16.80;64.00
56729;DHT22;42612;52.232;7.560;2022-10-15T07:19:53;16.80;63.90
56729;DHT22;42612;52.232;7.560;2022-10-15T07:22:39;16.80;64.00
56729;DHT22;42612;52.232;7.560;2022-10-15T07:25:25;16.80;64.30
56729;DHT22;42612;52.232;7.560;2022-10-15T07:28:12;16.80;64.20
56729;DHT22;42612;52.232;7.560;2022-10-15T07:31:02;16.80;64.20
56729;DHT22;42612;52.232;7.560;2022-10-15T07:33:49;16.80;64.20
56729;DHT22;42612;52.232;7.560;2022-10-15T07:36:35;16.80;64.20
56729;DHT22;42612;52.232;7.560;2022-10-15T07:39:21;16.90;64.20
56729;DHT22;42612;52.232;7.560;2022-10-15T07:42:07;16.90;64.30
56729;DHT22;42612;52.232;7.560;2022-10-15T07:44:53;16.90;64.30
56729;DHT22;42612;52.232;7.560;2022-10-15T07:47:39;16.90;64.40
56729;DHT22;42612;52.232;7.560;2022-10-15T07:50:26;16.90;64.50
56729;DHT22;42612;52.232;7.560;2022-10-15T07:53:12;16.90;64.50
56729;DHT22;42612;52.232;7.560;2022-10-15T07:55:59;16.90;64.50
56729;DHT22;42612;52.232;7.560;2022-10-15T07:58:46;17.00;64.70
56729;DHT22;42612;52.232;7.560;2022-10-15T08:01:38;17.00;64.80
56729;DHT22;42612;52.232;7.560;2022-10-15T08:04:24;17.00;64.90
56729;DHT22;42612;52.232;7.560;2022-10-15T08:07:09;17.00;65.00
56729;DHT22;42612;52.232;7.560;2022-10-15T08:09:55;17.00;64.80
56729;DHT22;42612;52.232;7.560;2022-10-15T08:12:41;17.00;65.10
56729;DHT22;42612;52.232;7.560;2022-10-15T08:15:27;17.00;65.00
56729;DHT22;42612;52.232;7.560;2022-10-15T08:18:13;17.00;65.00
56729;DHT22;42612;52.232;7.560;2022-10-15T08:20:59;17.10;65.20
56729;DHT22;42612;52.232;7.560;2022-10-15T08:23:46;17.20;65.30
56729;DHT22;42612;52.232;7.560;2022-10-15T08:26:32;17.10;65.20
56729;DHT22;42612;52.232;7.560;2022-10-15T08:29:19;17.10;65.10
56729;DHT22;42612;52.232;7.560;2022-10-15T08:32:05;17.20;65.40
56729;DHT22;42612;52.232;7.560;2022-10-15T08:34:50;17.20;65.30
56729;DHT22;42612;52.232;7.560;2022-10-15T08:37:36;17.30;65.50
56729;DHT22;42612;52.232;7.560;2022-10-15T08:40:22;17.30;65.50
56729;DHT22;42612;52.232;7.560;2022-10-15T08:43:21;17.30;65.60
56729;DHT22;42612;52.232;7.560;2022-10-15T08:46:09;17.40;65.50
56729;DHT22;42612;52.232;7.560;2022-10-15T08:48:58;17.40;65.50
56729;DHT22;42612;52.232;7.560;2022-10-15T08:51:45;17.50;65.50
56729;DHT22;42612;52.232;7.560;2022-10-15T08:54:38;17.50;65.70
56729;DHT22;42612;52.232;7.560;2022-10-15T08:57:32;17.50;65.70
56729;DHT22;42612;52.232;7.560;2022-10-15T09:00:43;17.50;65.90
56729;DHT22;42612;52.232;7.560;2022-10-15T09:06:54;17.60;65.90
56729;DHT22;42612;52.232;7.560;2022-10-15T09:09:51;17.60;65.70
56729;DHT22;42612;52.232;7.560;2022-10-15T09:19:05;17.70;65.70
56729;DHT22;42612;52.232;7.560;2022-10-15T09:21:59;17.80;65.70
56729;DHT22;42612;52.232;7.560;2022-10-15T09:24:47;17.80;65.80
56729;DHT22;42612;52.232;7.560;2022-10-15T09:27:33;17.90;66.00
56729;DHT22;42612;52.232;7.560;2022-10-15T09:33:14;18.00;66.00
56729;DHT22;42612;52.232;7.560;2022-10-15T09:42:54;18.10;66.10
56729;DHT22;42612;52.232;7.560;2022-10-15T09:45:21;18.10;66.20
56729;DHT22;42612;52.232;7.560;2022-10-15T09:48:39;18.20;66.10
56729;DHT22;42612;52.232;7.560;2022-10-15T09:57:02;18.20;65.60
56729;DHT22;42612;52.232;7.560;2022-10-15T09:59:32;18.20;65.70
56729;DHT22;42612;52.232;7.560;2022-10-15T10:02:02;18.20;65.60
56729;DHT22;42612;52.232;7.560;2022-10-15T10:04:33;18.20;65.50
56729;DHT22;42612;52.232;7.560;2022-10-15T10:07:00;18.20;65.50
56729;DHT22;42612;52.232;7.560;2022-10-15T10:09:30;18.30;65.50
56729;DHT22;42612;52.232;7.560;2022-10-15T10:11:59;18.30;65.40
56729;DHT22;42612;52.232;7.560;2022-10-15T10:14:36;18.30;65.50
56729;DHT22;42612;52.232;7.560;2022-10-15T10:19:40;18.40;65.80
56729;DHT22;42612;52.232;7.560;2022-10-15T10:22:14;18.50;65.80
56729;DHT22;42612;52.232;7.560;2022-10-15T10:24:41;18.50;65.80
56729;DHT22;42612;52.232;7.560;2022-10-15T10:27:26;18.60;65.70
56729;DHT22;42612;52.232;7.560;2022-10-15T10:29:59;18.70;65.80
56729;DHT22;42612;52.232;7.560;2022-10-15T10:32:26;18.80;65.70
56729;DHT22;42612;52.232;7.560;2022-10-15T10:34:54;18.90;65.70
56729;DHT22;42612;52.232;7.560;2022-10-15T10:37:20;19.00;65.50
56729;DHT22;42612;52.232;7.560;2022-10-15T10:39:50;18.90;65.10
56729;DHT22;42612;52.232;7.560;2022-10-15T10:44:44;19.10;65.00
56729;DHT22;42612;52.232;7.560;2022-10-15T10:47:15;19.10;64.70
56729;DHT22;42612;52.232;7.560;2022-10-15T10:49:47;19.20;64.80
56729;DHT22;42612;52.232;7.560;2022-10-15T10:54:52;19.20;64.40
56729;DHT22;42612;52.232;7.560;2022-10-15T10:57:26;19.20;64.20
56729;DHT22;42612;52.232;7.560;2022-10-15T11:02:45;19.20;64.10
56729;DHT22;42612;52.232;7.560;2022-10-15T11:05:10;19.20;64.20
56729;DHT22;42612;52.232;7.560;2022-10-15T11:10:20;19.30;64.40
56729;DHT22;42612;52.232;7.560;2022-10-15T11:23:27;19.60;64.50
56729;DHT22;42612;52.232;7.560;2022-10-15T11:31:51;19.90;63.90
56729;DHT22;42612;52.232;7.560;2022-10-15T11:42:56;20.10;63.10
56729;DHT22;42612;52.232;7.560;2022-10-15T11:45:27;20.10;63.10
56729;DHT22;42612;52.232;7.560;2022-10-15T11:48:01;20.10;62.70
56729;DHT22;42612;52.232;7.560;2022-10-15T11:50:33;20.10;62.90
56729;DHT22;42612;52.232;7.560;2022-10-15T11:53:15;20.20;63.10
56729;DHT22;42612;52.232;7.560;2022-10-15T11:56:04;20.20;63.10
56729;DHT22;42612;52.232;7.560;2022-10-15T11:58:40;20.30;62.90
56729;DHT22;42612;52.232;7.560;2022-10-15T12:01:31;20.30;62.70
56729;DHT22;42612;52.232;7.560;2022-10-15T12:04:01;20.30;62.70
56729;DHT22;42612;52.232;7.560;2022-10-15T12:06:31;20.20;62.40
56729;DHT22;42612;52.232;7.560;2022-10-15T12:09:00;20.30;62.40
56729;DHT22;42612;52.232;7.560;2022-10-15T12:11:32;20.30;62.50
56729;DHT22;42612;52.232;7.560;2022-10-15T12:14:16;20.30;62.40
56729;DHT22;42612;52.232;7.560;2022-10-15T12:16:45;20.20;62.60
56729;DHT22;42612;52.232;7.560;2022-10-15T12:19:47;20.20;62.80
56729;DHT22;42612;52.232;7.560;2022-10-15T12:22:30;20.10;62.90
56729;DHT22;42612;52.232;7.560;2022-10-15T12:25:06;20.10;63.00
56729;DHT22;42612;52.232;7.560;2022-10-15T12:30:42;20.00;63.20
56729;DHT22;42612;52.232;7.560;2022-10-15T12:33:25;20.00;63.40
56729;DHT22;42612;52.232;7.560;2022-10-15T12:38:52;19.90;63.40
56729;DHT22;42612;52.232;7.560;2022-10-15T12:44:07;19.80;63.90
56729;DHT22;42612;52.232;7.560;2022-10-15T12:46:42;19.80;63.90
56729;DHT22;42612;52.232;7.560;2022-10-15T12:51:57;19.70;64.10
56729;DHT22;42612;52.232;7.560;2022-10-15T13:02:49;19.60;64.50
56729;DHT22;42612;52.232;7.560;2022-10-15T13:05:27;19.60;64.50
56729;DHT22;42612;52.232;7.560;2022-10-15T13:08:00;19.50;64.90
56729;DHT22;42612;52.232;7.560;2022-10-15T13:10:28;19.50;64.90
56729;DHT22;42612;52.232;7.560;2022-10-15T13:13:05;19.50;65.10
56729;DHT22;42612;52.232;7.560;2022-10-15T13:15:35;19.50;65.20
56729;DHT22;42612;52.232;7.560;2022-10-15T13:18:05;19.50;65.70
56729;DHT22;42612;52.232;7.560;2022-10-15T13:23:16;19.40;65.20
56729;DHT22;42612;52.232;7.560;2022-10-15T13:25:47;19.50;65.30
56729;DHT22;42612;52.232;7.560;2022-10-15T13:28:27;19.50;65.40
56729;DHT22;42612;52.232;7.560;2022-10-15T13:30:54;19.40;65.50
56729;DHT22;42612;52.232;7.560;2022-10-15T13:33:19;19.40;65.40
56729;DHT22;42612;52.232;7.560;2022-10-15T13:35:45;19.40;65.50
56729;DHT22;42612;52.232;7.560;2022-10-15T13:38:21;19.40;65.60
56729;DHT22;42612;52.232;7.560;2022-10-15T13:40:48;19.40;65.40
56729;DHT22;42612;52.232;7.560;2022-10-15T13:43:17;19.40;65.40
56729;DHT22;42612;52.232;7.560;2022-10-15T13:45:48;19.50;66.10
56729;DHT22;42612;52.232;7.560;2022-10-15T13:48:22;19.40;65.70
56729;DHT22;42612;52.232;7.560;2022-10-15T13:50:53;19.40;65.80
56729;DHT22;42612;52.232;7.560;2022-10-15T13:53:36;19.50;65.70
56729;DHT22;42612;52.232;7.560;2022-10-15T13:56:18;19.40;66.50
56729;DHT22;42612;52.232;7.560;2022-10-15T13:58:51;19.40;66.20
56729;DHT22;42612;52.232;7.560;2022-10-15T14:01:21;19.40;66.10
56729;DHT22;42612;52.232;7.560;2022-10-15T14:03:58;19.40;66.00
56729;DHT22;42612;52.232;7.560;2022-10-15T14:08:55;19.40;66.60
56729;DHT22;42612;52.232;7.560;2022-10-15T14:11:21;19.40;66.40
56729;DHT22;42612;52.232;7.560;2022-10-15T14:16:17;19.50;66.90
56729;DHT22;42612;52.232;7.560;2022-10-15T14:18:45;19.40;66.30
56729;DHT22;42612;52.232;7.560;2022-10-15T14:21:13;19.50;66.60
56729;DHT22;42612;52.232;7.560;2022-10-15T14:23:40;19.40;66.30
56729;DHT22;42612;52.232;7.560;2022-10-15T14:26:07;19.50;66.40
56729;DHT22;42612;52.232;7.560;2022-10-15T14:28:35;19.50;66.80
56729;DHT22;42612;52.232;7.560;2022-10-15T14:31:01;19.50;67.00
56729;DHT22;42612;52.232;7.560;2022-10-15T14:36:03;19.50;67.10
56729;DHT22;42612;52.232;7.560;2022-10-15T14:38:39;19.50;66.60
56729;DHT22;42612;52.232;7.560;2022-10-15T14:41:26;19.60;66.70
56729;DHT22;42612;52.232;7.560;2022-10-15T14:46:37;19.60;66.60
56729;DHT22;42612;52.232;7.560;2022-10-15T14:49:13;19.60;66.70
56729;DHT22;42612;52.232;7.560;2022-10-15T14:51:42;19.60;66.60
56729;DHT22;42612;52.232;7.560;2022-10-15T14:54:11;19.70;67.10
56729;DHT22;42612;52.232;7.560;2022-10-15T14:56:43;19.70;66.70
56729;DHT22;42612;52.232;7.560;2022-10-15T14:59:12;19.70;66.60
56729;DHT22;42612;52.232;7.560;2022-10-15T15:01:48;19.70;66.50
56729;DHT22;42612;52.232;7.560;2022-10-15T15:04:36;19.80;66.60
56729;DHT22;42612;52.232;7.560;2022-10-15T15:07:05;19.80;66.20
56729;DHT22;42612;52.232;7.560;2022-10-15T15:09:38;19.90;66.10
56729;DHT22;42612;52.232;7.560;2022-10-15T15:12:05;19.80;65.90
56729;DHT22;42612;52.232;7.560;2022-10-15T15:14:31;19.80;66.40
56729;DHT22;42612;52.232;7.560;2022-10-15T15:16:57;19.80;66.50
56729;DHT22;42612;52.232;7.560;2022-10-15T15:19:22;19.80;66.60
56729;DHT22;42612;52.232;7.560;2022-10-15T15:21:48;19.80;66.30
56729;DHT22;42612;52.232;7.560;2022-10-15T15:24:13;19.80;66.50
56729;DHT22;42612;52.232;7.560;2022-10-15T15:26:39;19.90;66.60
56729;DHT22;42612;52.232;7.560;2022-10-15T15:29:09;19.80;67.00
56729;DHT22;42612;52.232;7.560;2022-10-15T15:31:36;19.80;66.20
56729;DHT22;42612;52.232;7.560;2022-10-15T15:34:02;19.90;66.70
56729;DHT22;42612;52.232;7.560;2022-10-15T15:36:27;19.90;66.50
56729;DHT22;42612;52.232;7.560;2022-10-15T15:38:53;20.00;66.50
56729;DHT22;42612;52.232;7.560;2022-10-15T15:41:22;19.90;66.40
56729;DHT22;42612;52.232;7.560;2022-10-15T15:43:49;19.90;66.50
56729;DHT22;42612;52.232;7.560;2022-10-15T15:46:16;20.00;66.40
56729;DHT22;42612;52.232;7.560;2022-10-15T15:48:41;20.00;66.30
56729;DHT22;42612;52.232;7.560;2022-10-15T15:51:20;20.00;66.40
56729;DHT22;42612;52.232;7.560;2022-10-15T15:53:48;20.00;66.30
56729;DHT22;42612;52.232;7.560;2022-10-15T15:56:14;20.00;66.30
56729;DHT22;42612;52.232;7.560;2022-10-15T15:58:39;20.00;66.20
56729;DHT22;42612;52.232;7.560;2022-10-15T16:01:05;20.00;66.10
56729;DHT22;42612;52.232;7.560;2022-10-15T16:03:31;20.00;66.10
56729;DHT22;42612;52.232;7.560;2022-10-15T16:05:56;20.00;66.10
56729;DHT22;42612;52.232;7.560;2022-10-15T16:08:22;20.00;66.60
56729;DHT22;42612;52.232;7.560;2022-10-15T16:10:47;20.00;66.60
56729;DHT22;42612;52.232;7.560;2022-10-15T16:13:13;20.00;66.30
56729;DHT22;42612;52.232;7.560;2022-10-15T16:15:39;20.00;66.60
56729;DHT22;42612;52.232;7.560;2022-10-15T16:18:04;20.00;66.20
56729;DHT22;42612;52.232;7.560;2022-10-15T16:20:30;20.00;66.10
56729;DHT22;42612;52.232;7.560;2022-10-15T16:22:56;20.10;66.20
56729;DHT22;42612;52.232;7.560;2022-10-15T16:25:21;20.00;66.00
56729;DHT22;42612;52.232;7.560;2022-10-15T16:27:47;20.00;66.00
56729;DHT22;42612;52.232;7.560;2022-10-15T16:30:13;20.10;66.30
56729;DHT22;42612;52.232;7.560;2022-10-15T16:32:39;20.00;66.20
56729;DHT22;42612;52.232;7.560;2022-10-15T16:35:05;20.00;66.00
56729;DHT22;42612;52.232;7.560;2022-10-15T16:37:31;20.00;66.20
56729;DHT22;42612;52.232;7.560;2022-10-15T16:39:57;20.10;66.10
56729;DHT22;42612;52.232;7.560;2022-10-15T16:42:22;20.00;66.20
56729;DHT22;42612;52.232;7.560;2022-10-15T16:44:48;20.00;66.20
56729;DHT22;42612;52.232;7.560;2022-10-15T16:47:14;20.10;66.30
56729;DHT22;42612;52.232;7.560;2022-10-15T16:49:40;20.00;66.00
56729;DHT22;42612;52.232;7.560;2022-10-15T16:52:07;20.00;65.60
56729;DHT22;42612;52.232;7.560;2022-10-15T16:54:33;20.00;65.50
56729;DHT22;42612;52.232;7.560;2022-10-15T16:56:59;20.00;65.50
56729;DHT22;42612;52.232;7.560;2022-10-15T16:59:24;20.00;65.40
56729;DHT22;42612;52.232;7.560;2022-10-15T17:01:50;20.00;65.30
56729;DHT22;42612;52.232;7.560;2022-10-15T17:04:15;20.00;65.40
56729;DHT22;42612;52.232;7.560;2022-10-15T17:06:41;19.90;65.00
56729;DHT22;42612;52.232;7.560;2022-10-15T17:09:07;19.90;65.10
56729;DHT22;42612;52.232;7.560;2022-10-15T17:11:34;19.90;65.30
56729;DHT22;42612;52.232;7.560;2022-10-15T17:14:03;19.90;64.90
56729;DHT22;42612;52.232;7.560;2022-10-15T17:16:36;19.80;64.60
56729;DHT22;42612;52.232;7.560;2022-10-15T17:19:04;19.80;64.70
56729;DHT22;42612;52.232;7.560;2022-10-15T17:21:30;19.80;64.60
56729;DHT22;42612;52.232;7.560;2022-10-15T17:23:57;19.70;64.40
56729;DHT22;42612;52.232;7.560;2022-10-15T17:26:24;19.80;64.10
56729;DHT22;42612;52.232;7.560;2022-10-15T17:28:52;19.70;64.00
56729;DHT22;42612;52.232;7.560;2022-10-15T17:31:18;19.70;63.90
56729;DHT22;42612;52.232;7.560;2022-10-15T17:33:46;19.60;63.80
56729;DHT22;42612;52.232;7.560;2022-10-15T17:36:13;19.60;63.60
56729;DHT22;42612;52.232;7.560;2022-10-15T17:38:43;19.50;63.60
56729;DHT22;42612;52.232;7.560;2022-10-15T17:41:10;19.60;63.70
56729;DHT22;42612;52.232;7.560;2022-10-15T17:43:40;19.50;63.70
56729;DHT22;42612;52.232;7.560;2022-10-15T17:46:07;19.50;63.70
56729;DHT22;42612;52.232;7.560;2022-10-15T17:48:35;19.50;63.70
56729;DHT22;42612;52.232;7.560;2022-10-15T17:51:02;19.40;63.60
56729;DHT22;42612;52.232;7.560;2022-10-15T17:53:28;19.40;63.50
56729;DHT22;42612;52.232;7.560;2022-10-15T17:55:55;19.40;63.30
56729;DHT22;42612;52.232;7.560;2022-10-15T17:58:21;19.40;63.90
56729;DHT22;42612;52.232;7.560;2022-10-15T18:00:54;19.30;63.20
56729;DHT22;42612;52.232;7.560;2022-10-15T18:03:21;19.30;63.10
56729;DHT22;42612;52.232;7.560;2022-10-15T18:05:47;19.30;63.10
56729;DHT22;42612;52.232;7.560;2022-10-15T18:08:13;19.30;63.00
56729;DHT22;42612;52.232;7.560;2022-10-15T18:10:39;19.20;62.90
56729;DHT22;42612;52.232;7.560;2022-10-15T18:13:05;19.20;62.80
56729;DHT22;42612;52.232;7.560;2022-10-15T18:15:31;19.20;62.80
56729;DHT22;42612;52.232;7.560;2022-10-15T18:17:56;19.10;62.70
56729;DHT22;42612;52.232;7.560;2022-10-15T18:20:22;19.20;62.90
56729;DHT22;42612;52.232;7.560;2022-10-15T18:22:51;19.00;62.70
56729;DHT22;42612;52.232;7.560;2022-10-15T18:25:17;19.00;62.80
56729;DHT22;42612;52.232;7.560;2022-10-15T18:27:43;18.90;62.70
56729;DHT22;42612;52.232;7.560;2022-10-15T18:30:08;18.80;62.80
56729;DHT22;42612;52.232;7.560;2022-10-15T18:32:36;18.90;62.80
56729;DHT22;42612;52.232;7.560;2022-10-15T18:35:02;18.80;62.80
56729;DHT22;42612;52.232;7.560;2022-10-15T18:37:29;18.80;62.80
56729;DHT22;42612;52.232;7.560;2022-10-15T18:39:55;18.80;62.90
56729;DHT22;42612;52.232;7.560;2022-10-15T18:42:20;18.80;62.80
56729;DHT22;42612;52.232;7.560;2022-10-15T18:44:46;18.70;62.70